Time;durP1;ratioP1;P1;durP2;ratioP2;P2;SDS_P1;SDS_P2;PMS_P1;PMS_P2;Temp;Humidity;BMP_temperature;BMP_pressure;BME280_temperature;BME280_humidity;BME280_pressure;Samples;Min_cycle;Max_cycle;Signal;HPM_P1;HPM_P2
2022/07/05 00:01:58;;;;;;;6.00;3.00;;;17.70;36.40;;;;;;5032537;28;20882;-74
2022/07/05 00:04:23;;;;;;;5.20;3.20;;;17.50;37.30;;;;;;5050412;28;20781;-74
2022/07/05 00:09:33;;;;;;;5.10;2.80;;;17.50;38.10;;;;;;5050763;28;20393;-75
2022/07/05 00:11:59;;;;;;;8.40;3.03;;;17.50;37.80;;;;;;5051252;28;20389;-75
2022/07/05 00:14:24;;;;;;;6.88;3.10;;;17.40;38.30;;;;;;5051429;28;20377;-74
2022/07/05 00:16:50;;;;;;;3.88;2.95;;;17.20;39.90;;;;;;5050562;28;20390;-73
2022/07/05 00:19:16;;;;;;;6.10;3.20;;;17.20;40.10;;;;;;5050712;28;20938;-74
2022/07/05 00:21:41;;;;;;;7.20;3.10;;;17.10;40.70;;;;;;5050427;28;20394;-74
2022/07/05 00:24:07;;;;;;;4.13;2.90;;;17.20;40.00;;;;;;5050165;28;20417;-74
2022/07/05 00:26:33;;;;;;;4.75;2.80;;;17.30;39.60;;;;;;5050104;28;20409;-75
2022/07/05 00:28:58;;;;;;;3.72;3.05;;;17.40;38.90;;;;;;5050506;28;20738;-75
2022/07/05 00:31:24;;;;;;;7.72;3.30;;;17.40;38.60;;;;;;5049960;28;20439;-74
2022/07/05 00:33:49;;;;;;;7.90;3.50;;;17.30;38.60;;;;;;5051970;28;20389;-71
2022/07/05 00:36:15;;;;;;;5.00;3.00;;;17.30;38.80;;;;;;5053818;28;20439;-74
2022/07/05 00:38:40;;;;;;;5.15;3.40;;;17.30;39.30;;;;;;5053834;28;20386;-74
2022/07/05 00:41:06;;;;;;;4.00;3.40;;;17.10;40.70;;;;;;5053643;28;20750;-75
2022/07/05 00:43:32;;;;;;;5.67;3.10;;;17.00;41.70;;;;;;5053787;28;20434;-75
2022/07/05 00:45:58;;;;;;;5.43;3.10;;;16.80;44.00;;;;;;5053691;28;20476;-74
2022/07/05 00:48:23;;;;;;;6.30;3.77;;;16.70;45.20;;;;;;5053639;28;20464;-74
2022/07/05 00:50:51;;;;;;;5.43;3.70;;;16.90;43.70;;;;;;5054032;28;20380;-74
2022/07/05 00:53:17;;;;;;;4.32;3.17;;;17.00;43.30;;;;;;5053722;28;20378;-73
2022/07/05 00:55:44;;;;;;;5.30;3.45;;;17.10;42.70;;;;;;5053786;28;20382;-74
2022/07/05 00:58:10;;;;;;;8.50;3.78;;;17.00;43.00;;;;;;5053643;28;20385;-74
2022/07/05 01:00:36;;;;;;;9.13;3.80;;;17.00;42.90;;;;;;5053423;28;20389;-73
2022/07/05 01:03:02;;;;;;;7.60;3.90;;;17.00;42.70;;;;;;5035513;28;20492;-73
2022/07/05 01:05:29;;;;;;;4.28;3.10;;;17.00;43.10;;;;;;5053319;28;20402;-73
2022/07/05 01:07:55;;;;;;;9.05;3.80;;;17.00;43.20;;;;;;5053302;28;20570;-73
2022/07/05 01:10:21;;;;;;;7.60;3.35;;;17.00;42.00;;;;;;5053249;28;20747;-73
2022/07/05 01:12:47;;;;;;;5.00;3.50;;;17.00;42.40;;;;;;5035288;28;20385;-75
2022/07/05 01:15:13;;;;;;;6.60;3.90;;;17.00;42.80;;;;;;5053489;28;20382;-75
2022/07/05 01:17:39;;;;;;;6.50;3.75;;;17.00;43.30;;;;;;5053237;28;20464;-74
2022/07/05 01:20:06;;;;;;;5.30;3.97;;;17.00;43.80;;;;;;5053230;28;20401;-73
2022/07/05 01:22:50;;;;;;;6.25;3.88;;;16.90;45.40;;;;;;5052810;28;20381;-74
2022/07/05 01:25:15;;;;;;;4.63;3.70;;;16.80;46.80;;;;;;5053223;28;20424;-73
2022/07/05 01:27:42;;;;;;;7.55;4.32;;;16.90;47.20;;;;;;5053110;28;20433;-74
2022/07/05 01:30:08;;;;;;;9.73;4.40;;;16.90;46.30;;;;;;5053058;28;20416;-74
2022/07/05 01:32:33;;;;;;;6.22;4.20;;;16.90;46.90;;;;;;5052664;28;20381;-74
2022/07/05 01:34:59;;;;;;;5.67;4.40;;;16.90;47.20;;;;;;5052949;28;20387;-74
2022/07/05 01:37:25;;;;;;;5.50;4.23;;;16.90;47.00;;;;;;5034800;28;20400;-74
2022/07/05 01:39:52;;;;;;;7.43;3.93;;;16.90;47.20;;;;;;5053936;28;20796;-73
2022/07/05 01:42:18;;;;;;;7.60;3.95;;;16.90;46.80;;;;;;5053422;28;20452;-74
2022/07/05 01:44:43;;;;;;;7.28;3.90;;;17.00;46.00;;;;;;5052680;28;20386;-74
2022/07/05 01:47:09;;;;;;;8.60;4.13;;;17.10;44.50;;;;;;5052349;28;20444;-74
2022/07/05 01:49:41;;;;;;;7.30;4.23;;;17.20;43.30;;;;;;5052474;28;20381;-74
2022/07/05 01:52:11;;;;;;;7.00;4.00;;;17.10;44.70;;;;;;5052355;28;20401;-74
2022/07/05 01:54:37;;;;;;;5.55;3.97;;;17.10;45.00;;;;;;5052485;28;20409;-74
2022/07/05 01:57:05;;;;;;;7.17;4.37;;;17.20;44.30;;;;;;5052531;28;20798;-72
2022/07/05 01:59:34;;;;;;;7.40;4.10;;;17.20;43.80;;;;;;5052651;28;20417;-72
2022/07/05 02:02:00;;;;;;;8.15;4.20;;;17.10;44.10;;;;;;5081264;22;20439;-75
2022/07/05 02:04:27;;;;;;;8.35;4.10;;;17.10;44.50;;;;;;5054349;28;20399;-74
2022/07/05 02:06:53;;;;;;;7.70;4.60;;;17.00;45.30;;;;;;5054114;28;20474;-74
2022/07/05 02:09:18;;;;;;;8.90;4.77;;;16.80;46.10;;;;;;5072018;28;20384;-75
2022/07/05 02:11:44;;;;;;;6.00;4.40;;;16.50;48.60;;;;;;5071811;28;20762;-74
2022/07/05 02:14:09;;;;;;;7.47;4.40;;;16.10;52.20;;;;;;5071617;28;20860;-74
2022/07/05 02:16:35;;;;;;;5.30;4.20;;;16.30;52.70;;;;;;5071905;28;20525;-74
2022/07/05 02:19:01;;;;;;;7.93;4.70;;;16.50;50.00;;;;;;5071911;28;20847;-74
2022/07/05 02:21:26;;;;;;;7.07;4.50;;;16.60;49.50;;;;;;5072001;28;20391;-74
2022/07/05 02:23:52;;;;;;;6.40;4.40;;;16.40;51.10;;;;;;5071678;28;20387;-75
2022/07/05 02:26:18;;;;;;;8.80;4.80;;;16.20;53.00;;;;;;5071636;28;20411;-75
2022/07/05 02:28:43;;;;;;;6.57;4.50;;;16.40;51.20;;;;;;5071912;28;20375;-74
2022/07/05 02:31:09;;;;;;;6.65;4.35;;;16.30;51.00;;;;;;5071429;28;20386;-75
2022/07/05 02:33:35;;;;;;;5.18;4.68;;;16.10;53.50;;;;;;5071520;28;20463;-75
2022/07/05 02:36:09;;;;;;;4.90;4.40;;;15.90;55.50;;;;;;5071670;28;20951;-75
2022/07/05 02:38:34;;;;;;;8.93;4.85;;;15.80;58.30;;;;;;5071377;28;20383;-75
2022/07/05 02:41:00;;;;;;;5.23;4.10;;;15.80;58.70;;;;;;5071335;28;20386;-74
2022/07/05 02:43:25;;;;;;;7.47;4.43;;;16.00;57.70;;;;;;5071750;28;20856;-73
2022/07/05 02:45:51;;;;;;;5.40;3.90;;;16.10;56.20;;;;;;5071575;28;20388;-74
2022/07/05 02:48:16;;;;;;;6.57;4.40;;;16.10;55.60;;;;;;5053412;28;20453;-74
2022/07/05 02:50:42;;;;;;;6.13;4.10;;;16.00;55.20;;;;;;5071311;28;20390;-74
2022/07/05 02:53:08;;;;;;;8.00;4.20;;;16.00;55.20;;;;;;5071105;28;20376;-74
2022/07/05 02:55:33;;;;;;;10.88;4.90;;;16.30;53.00;;;;;;5070983;28;20442;-74
2022/07/05 02:57:59;;;;;;;6.00;4.22;;;16.70;49.70;;;;;;5070967;28;20387;-74
2022/07/05 03:00:24;;;;;;;7.70;4.90;;;16.80;47.70;;;;;;5070756;28;20467;-74
2022/07/05 03:02:50;;;;;;;10.10;4.80;;;16.80;48.30;;;;;;5070808;28;20890;-74
2022/07/05 03:05:15;;;;;;;7.85;4.25;;;16.90;46.80;;;;;;5070828;28;20388;-75
2022/07/05 03:07:41;;;;;;;7.47;4.50;;;16.90;46.80;;;;;;5070810;28;20396;-75
2022/07/05 03:10:07;;;;;;;5.20;4.27;;;16.80;47.60;;;;;;5070727;28;20380;-75
2022/07/05 03:12:32;;;;;;;9.68;4.63;;;16.80;47.00;;;;;;5070843;28;20466;-75
2022/07/05 03:14:58;;;;;;;5.78;4.20;;;16.80;46.00;;;;;;5070767;28;20437;-75
2022/07/05 03:17:23;;;;;;;5.40;3.90;;;16.90;44.30;;;;;;5070775;28;20417;-75
2022/07/05 03:19:49;;;;;;;6.03;4.53;;;16.80;45.00;;;;;;5070771;28;20387;-75
2022/07/05 03:22:14;;;;;;;8.48;4.47;;;16.80;45.90;;;;;;5070564;28;20392;-75
2022/07/05 03:24:40;;;;;;;11.00;4.57;;;16.90;44.60;;;;;;5052720;28;20391;-75
2022/07/05 03:27:05;;;;;;;5.23;4.27;;;16.70;46.20;;;;;;5071130;28;20419;-76
2022/07/05 03:29:31;;;;;;;6.37;4.43;;;16.70;45.80;;;;;;5071467;28;20478;-76
2022/07/05 03:31:57;;;;;;;7.68;5.10;;;16.60;47.40;;;;;;5071382;28;20883;-75
2022/07/05 03:34:22;;;;;;;6.60;4.40;;;16.60;47.50;;;;;;5072118;28;20861;-76
2022/07/05 03:36:48;;;;;;;5.80;4.00;;;16.70;46.10;;;;;;5053365;28;20387;-76
2022/07/05 03:39:13;;;;;;;6.40;4.77;;;16.70;46.20;;;;;;5053509;28;20502;-76
2022/07/05 03:41:39;;;;;;;5.40;4.60;;;16.80;45.50;;;;;;5071318;28;20384;-75
2022/07/05 03:44:04;;;;;;;8.63;4.43;;;16.60;46.80;;;;;;5071893;28;20516;-75
2022/07/05 03:46:30;;;;;;;6.07;4.70;;;16.70;45.40;;;;;;5070925;28;20443;-76
2022/07/05 03:48:55;;;;;;;6.38;4.20;;;16.50;46.00;;;;;;5070933;28;20391;-75
2022/07/05 03:51:21;;;;;;;6.50;4.73;;;16.40;48.30;;;;;;5070296;28;20375;-74
2022/07/05 03:53:46;;;;;;;10.63;4.80;;;16.30;49.10;;;;;;5070884;28;20475;-75
2022/07/05 03:56:12;;;;;;;6.20;4.20;;;16.30;49.90;;;;;;5070990;28;20372;-75
2022/07/05 03:58:37;;;;;;;6.93;4.50;;;16.30;49.70;;;;;;5070525;28;20409;-76
2022/07/05 04:01:03;;;;;;;5.30;3.97;;;16.40;49.40;;;;;;5070188;28;20391;-75
2022/07/05 04:03:29;;;;;;;9.93;4.10;;;16.40;49.60;;;;;;5070503;28;20387;-76
2022/07/05 04:05:54;;;;;;;10.18;4.40;;;16.50;48.80;;;;;;5070529;28;20765;-75
2022/07/05 04:08:20;;;;;;;6.30;4.20;;;16.50;48.10;;;;;;5071795;28;20398;-75
2022/07/05 04:10:45;;;;;;;8.37;4.53;;;16.60;47.80;;;;;;5056323;28;20872;-75
2022/07/05 04:13:11;;;;;;;7.72;4.40;;;16.60;48.20;;;;;;5056060;28;20913;-75
2022/07/05 04:15:36;;;;;;;8.18;4.22;;;16.50;49.00;;;;;;5074203;28;20406;-75
2022/07/05 04:18:02;;;;;;;8.00;4.50;;;16.50;49.60;;;;;;5074252;28;20391;-74
2022/07/05 04:20:28;;;;;;;5.43;4.05;;;16.60;49.80;;;;;;5074309;28;20398;-74
2022/07/05 04:22:55;;;;;;;6.25;4.03;;;16.70;50.30;;;;;;5074701;28;20694;-74
2022/07/05 04:25:21;;;;;;;6.90;4.70;;;16.50;51.70;;;;;;5075083;28;20842;-75
2022/07/05 04:27:49;;;;;;;6.13;4.00;;;16.40;54.00;;;;;;5074339;28;20450;-76
2022/07/05 04:30:16;;;;;;;9.03;5.30;;;16.30;54.80;;;;;;5073878;28;20384;-75
2022/07/05 04:32:42;;;;;;;9.65;4.60;;;16.30;55.00;;;;;;5073525;28;20700;-75
2022/07/05 04:35:08;;;;;;;7.50;4.40;;;16.40;55.30;;;;;;5073718;28;20371;-75
2022/07/05 04:37:34;;;;;;;4.97;4.25;;;16.30;55.90;;;;;;5073723;28;20868;-74
2022/07/05 04:40:00;;;;;;;5.30;4.40;;;16.30;55.90;;;;;;5074169;28;20474;-75
2022/07/05 04:42:25;;;;;;;5.30;4.30;;;16.30;56.10;;;;;;5073279;28;20444;-75
2022/07/05 04:44:51;;;;;;;7.55;4.68;;;16.30;55.40;;;;;;5073620;28;20411;-74
2022/07/05 04:47:16;;;;;;;5.90;4.07;;;16.30;54.50;;;;;;5073298;28;20896;-74
2022/07/05 04:49:42;;;;;;;9.20;4.83;;;16.40;54.20;;;;;;5055398;28;20398;-75
2022/07/05 04:52:07;;;;;;;7.38;4.47;;;16.90;49.00;;;;;;5073379;28;20785;-74
2022/07/05 04:54:35;;;;;;;7.97;4.80;;;17.20;44.60;;;;;;5073394;28;20873;-74
2022/07/05 04:57:01;;;;;;;8.82;5.38;;;17.30;44.00;;;;;;5073390;28;20884;-75
2022/07/05 04:59:26;;;;;;;7.70;5.17;;;17.30;44.70;;;;;;5073380;28;20380;-75
2022/07/05 05:01:52;;;;;;;6.37;5.10;;;17.30;45.00;;;;;;5073130;28;20876;-74
2022/07/05 05:04:17;;;;;;;7.45;4.90;;;17.30;43.70;;;;;;5073148;28;20396;-74
2022/07/05 05:06:43;;;;;;;9.90;5.23;;;17.30;43.50;;;;;;5072967;28;20743;-74
2022/07/05 05:09:09;;;;;;;9.23;5.40;;;17.40;43.40;;;;;;5073114;28;20379;-75
2022/07/05 05:11:34;;;;;;;11.35;6.28;;;17.40;44.30;;;;;;5073052;28;20383;-74
2022/07/05 05:14:00;;;;;;;9.67;6.00;;;17.50;42.90;;;;;;5073216;28;20433;-75
2022/07/05 05:16:25;;;;;;;8.77;6.00;;;17.50;41.80;;;;;;5073076;28;20470;-75
2022/07/05 05:18:51;;;;;;;7.97;5.60;;;17.30;40.00;;;;;;5072249;28;20998;-75
2022/07/05 05:21:17;;;;;;;8.55;6.40;;;17.30;41.90;;;;;;5072290;28;20868;-76
2022/07/05 05:23:43;;;;;;;10.52;6.20;;;17.30;42.30;;;;;;5072764;28;20453;-75
2022/07/05 05:26:08;;;;;;;9.40;6.03;;;17.40;42.20;;;;;;5055351;28;20809;-76
2022/07/05 05:28:34;;;;;;;9.73;6.18;;;17.50;42.30;;;;;;5072463;28;20895;-74
2022/07/05 05:30:59;;;;;;;13.87;5.90;;;17.60;40.90;;;;;;5053985;28;20419;-75
2022/07/05 05:33:25;;;;;;;9.27;6.07;;;17.70;40.90;;;;;;5072024;28;20425;-74
2022/07/05 05:35:50;;;;;;;7.63;5.45;;;17.70;40.00;;;;;;5071882;28;20471;-75
2022/07/05 05:38:16;;;;;;;10.67;5.33;;;17.80;39.20;;;;;;5072371;28;20386;-74
2022/07/05 05:40:44;;;;;;;8.73;5.00;;;17.80;39.20;;;;;;5072321;28;20383;-75
2022/07/05 05:43:10;;;;;;;7.57;5.30;;;17.80;38.90;;;;;;5071269;28;20445;-74
2022/07/05 05:45:35;;;;;;;11.90;5.80;;;17.80;39.30;;;;;;5059356;28;20399;-75
2022/07/05 05:48:01;;;;;;;8.53;5.50;;;17.80;38.70;;;;;;5053436;28;20409;-74
2022/07/05 05:50:33;;;;;;;11.50;5.38;;;17.90;39.20;;;;;;5071796;28;20448;-75
2022/07/05 05:52:59;;;;;;;6.38;5.10;;;18.00;38.50;;;;;;5071809;28;20384;-75
2022/07/05 05:55:26;;;;;;;12.15;5.45;;;18.00;38.30;;;;;;5064088;28;20399;-75
2022/07/05 05:57:53;;;;;;;11.13;5.50;;;18.00;38.30;;;;;;5051979;28;20393;-76
2022/07/05 06:00:19;;;;;;;11.30;6.15;;;18.10;37.40;;;;;;5033710;28;20482;-74
2022/07/05 06:02:46;;;;;;;13.30;6.88;;;18.10;37.20;;;;;;5051586;28;20393;-75
2022/07/05 06:05:12;;;;;;;10.80;5.60;;;18.20;35.70;;;;;;5053721;28;20396;-75
2022/07/05 06:07:51;;;;;;;8.02;4.60;;;18.30;34.40;;;;;;5059854;28;20852;-75
2022/07/05 06:10:23;;;;;;;11.15;4.93;;;18.40;32.20;;;;;;5053511;28;20398;-75
2022/07/05 06:12:50;;;;;;;8.25;4.40;;;18.50;31.10;;;;;;5071639;28;20772;-75
2022/07/05 06:15:16;;;;;;;6.90;4.20;;;18.50;31.20;;;;;;5063759;28;20754;-75
2022/07/05 06:17:42;;;;;;;4.65;3.60;;;18.70;29.50;;;;;;5057646;28;20399;-75
2022/07/05 06:20:14;;;;;;;9.00;4.45;;;18.80;29.60;;;;;;5059940;28;20552;-76
2022/07/05 06:22:39;;;;;;;8.27;4.00;;;18.90;30.00;;;;;;5058542;28;20410;-76
2022/07/05 06:25:06;;;;;;;5.78;3.72;;;18.90;29.70;;;;;;5065686;28;20393;-76
2022/07/05 06:27:32;;;;;;;7.28;4.57;;;18.80;30.20;;;;;;5051371;28;20449;-76
2022/07/05 06:29:57;;;;;;;7.20;4.43;;;19.00;30.10;;;;;;5051090;28;20433;-75
2022/07/05 06:32:23;;;;;;;6.43;4.30;;;19.00;30.70;;;;;;5032638;28;20456;-74
2022/07/05 06:34:49;;;;;;;7.23;4.23;;;19.20;28.40;;;;;;5051302;28;20376;-75
2022/07/05 06:37:15;;;;;;;12.33;4.07;;;19.20;28.00;;;;;;5060622;28;20401;-76
2022/07/05 06:39:40;;;;;;;7.20;3.43;;;19.30;27.50;;;;;;5069143;28;20825;-76
2022/07/05 06:42:06;;;;;;;4.93;3.53;;;19.40;26.00;;;;;;5066813;28;20469;-75
2022/07/05 06:44:33;;;;;;;7.50;3.53;;;19.50;26.30;;;;;;5053426;28;20400;-76
2022/07/05 06:46:58;;;;;;;7.38;3.90;;;19.60;25.20;;;;;;5060053;28;20397;-76
2022/07/05 06:49:24;;;;;;;7.80;4.30;;;19.60;25.90;;;;;;5051157;28;20783;-76
2022/07/05 06:51:49;;;;;;;8.48;3.70;;;19.60;25.30;;;;;;5050841;28;20393;-75
2022/07/05 06:54:15;;;;;;;7.97;4.20;;;19.60;25.00;;;;;;5051138;28;20715;-76
2022/07/05 06:56:40;;;;;;;7.97;3.23;;;19.50;26.20;;;;;;5051501;28;20445;-75
2022/07/05 06:59:06;;;;;;;6.17;3.87;;;19.70;24.30;;;;;;5051644;28;20385;-75
2022/07/05 07:01:31;;;;;;;7.77;4.10;;;19.70;25.10;;;;;;5051218;28;20432;-75
2022/07/05 07:03:57;;;;;;;6.80;3.35;;;19.70;23.50;;;;;;5070618;28;20492;-75
2022/07/05 07:06:23;;;;;;;7.63;3.60;;;19.80;23.60;;;;;;5057173;28;20391;-76
2022/07/05 07:11:32;;;;;;;5.68;3.75;;;19.90;24.50;;;;;;5070667;28;20379;-74
2022/07/05 07:13:58;;;;;;;6.75;3.70;;;20.10;23.70;;;;;;5065134;28;20389;-76
2022/07/05 07:16:24;;;;;;;7.10;4.10;;;20.10;23.10;;;;;;5062852;28;20387;-77
2022/07/05 07:18:50;;;;;;;9.25;4.05;;;20.20;23.30;;;;;;5052521;28;20384;-75
2022/07/05 07:21:15;;;;;;;10.10;3.50;;;20.30;22.50;;;;;;5051358;28;20855;-75
2022/07/05 07:23:41;;;;;;;6.37;3.00;;;20.30;22.50;;;;;;5050760;28;20377;-75
2022/07/05 07:26:06;;;;;;;5.93;3.80;;;20.20;21.60;;;;;;5050587;28;20409;-75
2022/07/05 07:28:32;;;;;;;7.73;3.50;;;20.20;21.80;;;;;;5050685;28;20399;-75
2022/07/05 07:30:58;;;;;;;5.90;3.40;;;20.10;22.50;;;;;;5062673;28;20395;-76
2022/07/05 07:33:23;;;;;;;9.38;3.40;;;20.20;22.80;;;;;;5050398;28;20874;-75
2022/07/05 07:35:49;;;;;;;5.23;3.93;;;20.50;21.80;;;;;;5059100;28;20391;-75
2022/07/05 07:38:14;;;;;;;6.73;4.10;;;20.30;22.60;;;;;;5071699;28;20383;-75
2022/07/05 07:40:40;;;;;;;7.30;3.67;;;20.20;22.50;;;;;;5070757;28;20399;-74
2022/07/05 07:43:05;;;;;;;7.77;3.70;;;20.20;22.20;;;;;;5073902;28;20399;-75
2022/07/05 07:45:31;;;;;;;8.27;4.20;;;20.40;21.20;;;;;;5070462;28;20392;-75
2022/07/05 07:47:57;;;;;;;6.55;4.22;;;20.50;20.70;;;;;;5070382;28;20486;-76
2022/07/05 07:50:22;;;;;;;9.73;4.30;;;20.50;20.50;;;;;;5068132;28;20430;-77
2022/07/05 07:52:53;;;;;;;7.60;4.07;;;20.50;20.80;;;;;;5058650;28;20384;-76
2022/07/05 07:55:18;;;;;;;8.68;4.20;;;20.90;19.80;;;;;;5070459;28;20403;-76
2022/07/05 07:57:44;;;;;;;8.23;3.83;;;20.90;19.30;;;;;;5058071;28;20389;-75
2022/07/05 08:00:10;;;;;;;9.50;4.67;;;20.90;19.60;;;;;;5050170;28;20381;-76
2022/07/05 08:02:35;;;;;;;8.73;4.60;;;20.80;19.40;;;;;;5061790;23;20441;-75
2022/07/05 08:05:01;;;;;;;9.13;4.57;;;20.90;19.20;;;;;;5049689;28;20526;-75
2022/07/05 08:07:27;;;;;;;8.25;4.72;;;20.80;19.40;;;;;;5051541;28;20769;-74
2022/07/05 08:09:53;;;;;;;11.80;4.33;;;20.80;19.90;;;;;;5048982;28;20449;-75
2022/07/05 08:12:19;;;;;;;6.80;4.07;;;20.80;20.40;;;;;;5051357;28;20575;-75
2022/07/05 08:14:45;;;;;;;7.55;3.80;;;20.70;19.30;;;;;;5043084;28;20482;-74
2022/07/05 08:17:12;;;;;;;9.45;4.10;;;20.90;18.80;;;;;;5039087;28;20804;-76
2022/07/05 08:22:22;;;;;;;4.60;2.80;;;21.10;17.00;;;;;;5052112;28;20464;-73
2022/07/05 08:24:48;;;;;;;9.75;4.20;;;21.50;16.30;;;;;;5035909;28;20427;-74
2022/07/05 08:27:13;;;;;;;7.70;3.70;;;21.50;16.50;;;;;;5050757;28;20397;-76
2022/07/05 08:29:39;;;;;;;4.30;2.60;;;21.50;16.80;;;;;;5050806;28;20467;-76
2022/07/05 08:32:05;;;;;;;7.15;2.95;;;21.90;16.40;;;;;;5050914;28;20385;-75
2022/07/05 08:34:31;;;;;;;4.47;2.80;;;21.90;14.80;;;;;;5049334;28;20886;-74
2022/07/05 08:36:56;;;;;;;3.67;2.00;;;22.00;14.80;;;;;;5028089;28;20430;-74
2022/07/05 08:39:22;;;;;;;4.30;2.37;;;22.10;14.30;;;;;;5029341;28;20495;-74
2022/07/05 08:41:50;;;;;;;4.27;2.40;;;22.20;13.70;;;;;;5029610;28;20401;-75
2022/07/05 08:44:18;;;;;;;5.07;2.50;;;22.50;13.70;;;;;;5048419;28;20381;-74
2022/07/05 08:46:46;;;;;;;5.97;2.70;;;22.80;13.20;;;;;;5048973;28;20826;-74
2022/07/05 08:49:13;;;;;;;4.90;2.70;;;23.10;12.80;;;;;;5048045;28;20735;-74
2022/07/05 08:51:41;;;;;;;5.65;2.90;;;23.10;12.20;;;;;;5034534;28;20755;-74
2022/07/05 08:54:09;;;;;;;9.98;3.10;;;23.10;12.60;;;;;;5029209;28;20383;-74
2022/07/05 08:56:35;;;;;;;5.80;3.20;;;23.10;12.50;;;;;;5042232;28;20401;-75
2022/07/05 08:59:01;;;;;;;6.73;2.90;;;23.40;12.70;;;;;;5052353;28;20396;-75
2022/07/05 09:01:31;;;;;;;5.03;3.03;;;23.20;13.20;;;;;;5052172;28;20825;-74
2022/07/05 09:04:03;;;;;;;8.43;3.00;;;23.30;13.20;;;;;;5049113;28;20401;-73
2022/07/05 09:06:30;;;;;;;5.50;3.08;;;23.30;12.40;;;;;;5031722;28;20438;-74
2022/07/05 09:08:58;;;;;;;6.30;3.10;;;23.10;12.80;;;;;;5031564;28;20703;-74
2022/07/05 09:11:39;;;;;;;3.88;2.10;;;22.90;13.00;;;;;;5031529;28;20394;-74
2022/07/05 09:14:07;;;;;;;5.03;2.10;;;22.50;12.60;;;;;;5031509;28;20398;-73
2022/07/05 09:16:33;;;;;;;5.72;2.60;;;22.10;14.60;;;;;;5033951;28;20515;-73
2022/07/05 09:19:06;;;;;;;4.15;2.50;;;22.10;14.20;;;;;;5034534;28;20423;-75
2022/07/05 09:21:32;;;;;;;4.47;2.30;;;22.10;14.90;;;;;;5031124;28;20387;-74
2022/07/05 09:24:03;;;;;;;3.40;2.30;;;22.10;14.10;;;;;;5031840;28;20845;-75
2022/07/05 09:26:32;;;;;;;2.53;2.20;;;22.70;12.90;;;;;;5031799;28;20413;-74
2022/07/05 09:28:58;;;;;;;3.63;2.00;;;23.10;11.80;;;;;;5032445;28;20436;-75
2022/07/05 09:31:29;;;;;;;4.53;2.42;;;23.40;11.40;;;;;;5032263;28;20379;-75
2022/07/05 09:34:03;;;;;;;3.20;1.92;;;23.10;11.70;;;;;;5032522;28;20395;-75
2022/07/05 09:36:47;;;;;;;4.80;2.10;;;22.90;12.20;;;;;;5031816;28;20379;-74
2022/07/05 09:39:12;;;;;;;4.78;2.03;;;22.60;12.60;;;;;;5031028;28;20387;-74
2022/07/05 09:41:38;;;;;;;4.40;1.87;;;22.20;12.80;;;;;;5031872;28;20395;-74
2022/07/05 09:44:04;;;;;;;5.57;2.20;;;21.90;14.20;;;;;;5031870;28;20419;-73
2022/07/05 09:46:30;;;;;;;3.33;1.90;;;22.00;14.60;;;;;;5031178;28;20390;-74
2022/07/05 09:48:56;;;;;;;4.53;2.60;;;22.20;13.60;;;;;;5029807;28;20399;-73
2022/07/05 09:51:21;;;;;;;5.40;2.40;;;22.70;13.00;;;;;;5011710;28;20389;-74
2022/07/05 09:53:48;;;;;;;5.15;2.10;;;23.10;12.00;;;;;;5032570;28;20391;-74
2022/07/05 09:56:13;;;;;;;3.30;2.20;;;23.10;11.50;;;;;;5032239;28;20395;-74
2022/07/05 09:58:40;;;;;;;2.88;2.58;;;22.90;11.60;;;;;;5030666;28;20391;-73
2022/07/05 10:01:25;;;;;;;3.38;1.98;;;22.90;11.90;;;;;;5035341;28;20427;-73
2022/07/05 10:03:55;;;;;;;5.60;2.10;;;22.80;13.10;;;;;;5052981;28;20385;-73
2022/07/05 10:06:26;;;;;;;3.60;2.37;;;22.40;14.50;;;;;;5050046;28;20374;-74
2022/07/05 10:08:55;;;;;;;5.47;2.38;;;22.30;13.90;;;;;;5031785;28;20738;-72
2022/07/05 10:11:23;;;;;;;4.20;2.30;;;22.60;13.40;;;;;;5032316;28;20387;-72
2022/07/05 10:13:50;;;;;;;4.47;1.98;;;22.90;10.70;;;;;;5032725;28;20446;-73
2022/07/05 10:16:17;;;;;;;2.60;1.80;;;23.00;11.10;;;;;;5041377;28;20394;-74
2022/07/05 10:18:50;;;;;;;7.00;2.00;;;22.80;11.80;;;;;;5031071;28;20401;-75
2022/07/05 10:21:17;;;;;;;3.07;2.10;;;22.80;9.40;;;;;;5032716;28;20429;-74
2022/07/05 10:23:44;;;;;;;3.03;2.03;;;22.60;9.60;;;;;;5033198;28;20422;-76
2022/07/05 10:26:12;;;;;;;3.95;2.20;;;22.80;7.60;;;;;;5051368;28;20400;-74
2022/07/05 10:28:39;;;;;;;3.10;2.20;;;22.80;7.60;;;;;;5043944;28;20410;-77
2022/07/05 10:31:08;;;;;;;5.43;2.00;;;23.00;7.80;;;;;;5044403;28;20437;-75
2022/07/05 10:33:35;;;;;;;5.03;2.15;;;22.90;7.80;;;;;;5036275;28;20518;-76
2022/07/05 10:36:01;;;;;;;4.25;1.90;;;23.10;7.60;;;;;;5033843;28;20399;-75
2022/07/05 10:38:28;;;;;;;2.90;2.00;;;23.20;8.20;;;;;;5031878;28;20907;-74
2022/07/05 10:40:57;;;;;;;2.90;1.70;;;23.60;8.00;;;;;;5030560;28;20382;-76
2022/07/05 10:43:24;;;;;;;4.20;1.90;;;24.00;7.30;;;;;;5044007;28;20390;-76
2022/07/05 10:45:51;;;;;;;3.22;2.10;;;24.50;6.90;;;;;;5051837;28;20850;-76
2022/07/05 10:48:23;;;;;;;2.95;1.80;;;25.00;6.70;;;;;;5052013;28;20488;-75
2022/07/05 10:50:54;;;;;;;5.00;1.80;;;25.20;5.40;;;;;;5050329;28;20450;-75
2022/07/05 10:53:22;;;;;;;3.47;2.00;;;25.00;6.80;;;;;;5035837;28;20468;-74
2022/07/05 10:55:53;;;;;;;5.00;2.80;;;25.30;5.20;;;;;;5032668;28;20391;-76
2022/07/05 10:58:27;;;;;;;3.70;2.20;;;25.20;6.50;;;;;;5032703;28;20460;-76
2022/07/05 11:01:11;;;;;;;2.88;2.30;;;24.00;8.30;;;;;;5031899;28;20461;-76
2022/07/05 11:04:05;;;;;;;5.47;2.42;;;23.30;10.50;;;;;;5047504;28;20756;-74
2022/07/05 11:06:42;;;;;;;3.53;2.40;;;23.40;11.10;;;;;;5038719;28;20411;-75
2022/07/05 11:09:11;;;;;;;4.07;2.40;;;23.00;11.40;;;;;;5034297;28;20371;-74
2022/07/05 11:11:42;;;;;;;5.35;2.80;;;22.80;11.10;;;;;;5047335;28;20407;-75
2022/07/05 11:14:22;;;;;;;4.75;2.72;;;23.00;11.90;;;;;;5018034;28;20829;-80
2022/07/05 11:17:11;;;;;;;6.10;2.80;;;22.80;11.30;;;;;;5014109;28;20395;-79
2022/07/05 11:20:14;;;;;;;5.05;3.13;;;22.90;11.80;;;;;;5034881;28;20433;-73
2022/07/05 11:23:00;;;;;;;5.40;2.40;;;23.40;10.50;;;;;;5045223;28;20403;-74
2022/07/05 11:25:29;;;;;;;5.43;2.40;;;23.30;10.60;;;;;;5019195;28;20403;-74
2022/07/05 11:28:19;;;;;;;4.82;2.53;;;23.40;10.10;;;;;;5031380;28;20417;-74
2022/07/05 11:30:57;;;;;;;4.90;3.13;;;23.20;10.60;;;;;;5031400;28;20382;-73
2022/07/05 11:33:33;;;;;;;4.72;2.90;;;23.50;10.30;;;;;;5031543;28;20368;-72
2022/07/05 11:35:59;;;;;;;5.30;3.10;;;23.80;9.30;;;;;;5013734;28;20385;-75
2022/07/05 11:38:26;;;;;;;6.70;2.60;;;24.10;8.70;;;;;;5013159;28;20385;-75
2022/07/05 11:40:53;;;;;;;4.47;3.20;;;24.40;7.90;;;;;;5019328;28;20394;-73
2022/07/05 11:43:29;;;;;;;4.57;2.60;;;24.60;8.20;;;;;;5031614;28;20430;-74
2022/07/05 11:45:57;;;;;;;6.00;2.72;;;24.80;8.30;;;;;;5049177;28;20397;-75
2022/07/05 11:48:25;;;;;;;12.55;3.10;;;24.90;8.30;;;;;;5050901;28;20412;-75
2022/07/05 11:50:50;;;;;;;3.07;2.77;;;24.50;8.20;;;;;;5035304;28;20885;-75
2022/07/05 11:53:30;;;;;;;3.53;2.77;;;24.40;7.90;;;;;;5038224;28;20446;-74
2022/07/05 11:55:59;;;;;;;5.20;2.83;;;24.40;8.60;;;;;;5032542;28;20403;-73
2022/07/05 11:58:34;;;;;;;2.55;2.35;;;24.50;8.30;;;;;;5011331;28;20394;-73
2022/07/05 12:01:01;;;;;;;3.15;2.30;;;24.80;7.40;;;;;;5011047;28;20408;-72
2022/07/05 12:03:27;;;;;;;3.20;2.42;;;25.20;7.40;;;;;;5046516;28;20389;-72
2022/07/05 12:05:53;;;;;;;5.28;2.40;;;25.50;5.50;;;;;;5046227;28;20393;-72
2022/07/05 12:08:22;;;;;;;4.57;2.90;;;25.40;6.00;;;;;;5040916;28;20397;-73
2022/07/05 12:13:50;;;;;;;4.87;2.40;;;24.40;7.90;;;;;;5042408;28;20950;-73
2022/07/05 12:16:16;;;;;;;2.40;2.00;;;24.60;7.90;;;;;;5037484;28;20399;-73
2022/07/05 12:18:48;;;;;;;4.40;3.10;;;24.50;7.30;;;;;;5031232;28;20399;-73
2022/07/05 12:21:14;;;;;;;3.90;3.00;;;24.10;7.80;;;;;;5048958;28;20476;-73
2022/07/05 12:23:42;;;;;;;6.30;2.67;;;24.00;8.20;;;;;;5051508;28;20385;-76
2022/07/05 12:26:08;;;;;;;4.93;2.60;;;24.10;7.70;;;;;;5050581;28;20466;-73
2022/07/05 12:28:36;;;;;;;7.82;3.22;;;24.40;7.20;;;;;;5050270;28;20898;-73
2022/07/05 12:31:20;;;;;;;7.15;2.88;;;24.70;6.50;;;;;;5054021;28;20416;-73
2022/07/05 12:33:47;;;;;;;3.10;2.30;;;24.70;6.50;;;;;;5054040;28;20381;-74
2022/07/05 12:36:14;;;;;;;3.80;2.70;;;25.00;5.10;;;;;;5034923;28;20395;-73
2022/07/05 12:38:41;;;;;;;4.35;2.38;;;25.20;5.10;;;;;;5033297;28;20783;-74
2022/07/05 12:41:07;;;;;;;4.80;2.60;;;25.20;5.10;;;;;;5034180;28;20913;-73
2022/07/05 12:43:33;;;;;;;4.37;2.33;;;24.80;5.10;;;;;;5051255;28;20397;-71
2022/07/05 12:46:06;;;;;;;9.38;2.30;;;24.70;6.00;;;;;;5054231;28;20411;-73
2022/07/05 12:48:39;;;;;;;5.28;2.40;;;24.30;6.60;;;;;;5053382;28;20488;-72
2022/07/05 12:51:07;;;;;;;4.15;2.78;;;24.30;6.90;;;;;;5053741;28;20833;-74
2022/07/05 12:59:09;;;;;;;4.15;2.72;;;24.20;6.80;;;;;;5034624;28;20382;-71
2022/07/05 13:01:42;;;;;;;4.30;2.45;;;24.40;7.10;;;;;;5052967;28;20416;-72
2022/07/05 13:04:14;;;;;;;3.45;2.42;;;24.40;6.60;;;;;;5053398;28;20382;-73
2022/07/05 13:06:41;;;;;;;6.70;2.40;;;24.60;5.30;;;;;;5019381;28;20395;-75